General Alvear, Argentina
Current Conditions -  °F | °C
As of 8:00 PM on Wednesday 17 Dec 2014 (Local Time) from SAEZ Reporting Station
Thunderstorm Thunderstorm  
Wind Chill: 19°   Ceiling: Unl
Heat Index: 19°   Visibility: 6mi
Dew Point: 16°   Wind: 8mph
Humidity: 83%   Direction: 290°WNW
Pressure: 29.88"   Gusts: NA
Location:  36.05°S, 60.02°W
Report Text: SAEZ 172300Z 29007KT 9999 TS SCT040 FEW050CB 19/16 Q1012
Loading
Personal Weather Stations






























Interactive Weather Map New forecast layout! Learn more

10-Day Weather Forecast

Advertisements
Track Severe Weather on mobile